Latest Weather Observations for St George

IDQ60801

Issued at 11:02 am EST Sunday 19 April 2015 (issued every 30 minutes, with the page automatically refreshed every 10 minutes)

About weather observations | Map of weather stations | Latest weather observations for QLD | Other Formats
Station Details ID: 043109 Name: ST GEORGE AIRPORT Lat: -28.05 Lon: 148.59 Height: 198.5 m
Data from the previous 72 hours. | See also: Recent months at St George
Date/Time
EST
Temp
°C
App
Temp
°C
Dew
Point
Rel
Hum
%
Delta-T
°C
Wind Press
QNH
hPa
Press
MSL
hPa
Rain
since 9 am
mm
Dir
 
Spd
km/h
Gust
km/h
Spd
kts
Gust
kts
19/11:00am 20.3 21.1 18.1 87 1.4 SSW 11 15 6 8 1020.9 - 0.0
19/10:30am 19.8 19.9 17.4 86 1.5 SSW 13 17 7 9 1021.0 - 0.0
19/10:00am 19.8 21.1 17.6 87 1.4 S 7 11 4 6 1020.9 - 0.0
19/09:30am 19.7 21.1 17.7 88 1.2 SSE 7 9 4 5 1020.7 - 0.0
19/09:00am 19.4 19.9 17.5 89 1.2 SSW 11 15 6 8 1020.6 1019.9 3.6
19/08:30am 19.4 20.8 17.7 90 1.1 SE 7 9 4 5 1020.3 - 3.6
19/08:00am 19.4 20.9 17.7 90 1.1 S 6 7 3 4 1019.8 - 3.6
19/07:30am 19.4 20.8 17.9 91 0.9 WSW 7 11 4 6 1019.8 - 3.6
19/07:00am 19.2 20.7 17.7 91 0.9 SSW 6 9 3 5 1019.3 - 3.6
19/06:30am 19.2 20.8 17.9 92 0.8 SSW 6 7 3 4 1018.7 - 3.6
19/06:00am 19.1 20.7 17.8 92 0.8 SW 6 6 3 3 1018.4 1017.7 3.6
19/05:30am 19.1 21.7 17.6 91 0.9 CALM 0 0 0 0 1018.2 - 3.6
19/05:00am 19.2 21.9 17.7 91 0.9 CALM 0 0 0 0 1018.0 - 3.6
19/04:30am 19.1 21.7 17.6 91 0.9 CALM 0 0 0 0 1017.8 - 3.6
19/04:00am 19.0 20.8 17.5 91 0.9 N 4 7 2 4 1017.8 - 3.6
19/03:30am 19.2 21.9 17.7 91 0.9 CALM 0 6 0 3 1017.7 - 3.4
19/03:00am 19.2 20.7 17.7 91 0.9 NE 6 7 3 4 1017.6 1016.9 3.2
19/02:30am 19.1 20.6 17.6 91 0.9 N 6 9 3 5 1017.8 - 3.0
19/02:00am 19.2 21.8 17.5 90 1.0 CALM 0 0 0 0 1018.1 - 2.8
19/01:30am 19.2 21.3 17.3 89 1.2 WSW 2 9 1 5 1018.7 - 2.6
19/01:00am 19.4 22.0 17.5 89 1.2 CALM 0 0 0 0 1019.0 - 1.2
19/12:30am 19.3 20.6 17.6 90 1.0 S 7 9 4 5 1018.9 - 0.8
19/12:00am 19.5 20.4 17.5 88 1.2 S 9 13 5 7 1018.7 1018.0 0.0
 
Date/Time
EST
Temp
°C
App
Temp
°C
Dew
Point
Rel
Hum
%
Delta-T
°C
Wind Press
QNH
hPa
Press
MSL
hPa
Rain
since 9 am
mm
Dir
 
Spd
km/h
Gust
km/h
Spd
kts
Gust
kts
18/11:30pm 19.5 19.9 17.3 87 1.4 S 11 13 6 7 1018.8 - 0.0
18/11:00pm 19.7 18.9 17.1 85 1.6 S 17 22 9 12 1018.9 - 0.0
18/10:30pm 20.1 19.8 17.3 84 1.7 SW 15 24 8 13 1019.0 - 0.0
18/10:00pm 20.3 18.2 17.1 82 2.0 SW 24 33 13 18 1019.1 - 0.0
18/09:30pm 21.9 18.7 16.2 70 3.5 WSW 28 43 15 23 1018.7 - 0.0
18/09:27pm 22.2 18.9 16.0 68 3.8 W 28 43 15 23 1018.7 - 0.0
18/09:00pm 23.1 23.1 16.2 65 4.2 N 11 13 6 7 1017.7 1017.0 0.0
18/08:30pm 22.8 25.0 16.6 68 3.8 CALM 0 0 0 0 1017.6 - 0.0
18/08:00pm 22.6 23.5 16.6 69 3.7 N 7 11 4 6 1017.4 - 0.0
18/07:30pm 22.2 22.9 16.2 69 3.7 N 7 9 4 5 1017.0 - 0.0
18/07:00pm 22.5 23.2 16.1 67 3.9 N 7 9 4 5 1016.8 - 0.0
18/06:30pm 23.0 23.2 15.8 64 4.4 NNE 9 11 5 6 1016.3 - 0.0
18/06:00pm 24.2 23.1 15.4 58 5.3 NNE 15 20 8 11 1016.5 1015.7 0.0
18/05:30pm 25.5 23.4 14.6 51 6.6 N 19 35 10 19 1016.1 - 0.0
18/05:00pm 26.7 24.9 14.5 47 7.4 N 17 28 9 15 1016.1 - 0.0
18/04:30pm 27.2 25.1 14.6 46 7.6 N 19 28 10 15 1016.3 - 0.0
18/04:00pm 27.2 25.1 14.6 46 7.6 N 19 28 10 15 1016.5 - 0.0
18/03:30pm 27.4 24.3 14.4 45 7.9 N 24 32 13 17 1016.3 - 0.0
18/03:00pm 27.9 25.8 15.2 46 7.8 N 20 33 11 18 1016.5 1015.7 0.0
18/02:30pm 28.0 25.7 14.6 44 8.1 N 20 30 11 16 1016.6 - 0.0
18/02:00pm 27.8 25.3 14.1 43 8.3 N 20 32 11 17 1016.7 - 0.0
18/01:30pm 28.3 25.4 15.2 44 8.0 N 24 33 13 18 1017.0 - 0.0
18/01:00pm 27.2 24.2 14.9 47 7.5 N 24 37 13 20 1017.5 - 0.0
18/12:30pm 27.1 23.8 15.1 47 7.3 NNE 26 37 14 20 1018.1 - 0.0
18/12:00pm 26.0 23.7 15.7 53 6.3 N 22 30 12 16 1018.8 1018.1 0.0
18/11:30am 25.1 22.4 15.7 56 5.8 N 24 35 13 19 1019.3 - 0.0
18/11:00am 24.6 21.4 15.2 55 5.7 NNE 26 37 14 20 1019.8 - 0.0
18/10:30am 23.3 20.5 15.4 61 4.8 N 24 39 13 21 1020.5 - 0.0
18/10:00am 23.5 20.4 15.5 60 4.8 N 26 35 14 19 1020.7 - 0.0
18/09:30am 23.1 20.3 15.4 62 4.7 N 24 35 13 19 1020.9 - 0.0
18/09:00am 22.6 19.9 15.7 65 4.2 N 24 39 13 21 1020.9 1020.2 0.0
18/08:30am 22.4 19.3 15.5 65 4.2 N 26 35 14 19 1020.6 - 0.0
18/08:00am 21.5 19.1 15.3 68 3.7 NNE 22 33 12 18 1020.4 - 0.0
18/07:30am 20.3 18.7 15.1 72 3.1 NNE 17 30 9 16 1019.9 - 0.0
18/07:00am 19.8 18.1 14.8 73 2.9 NNE 17 26 9 14 1019.7 - 0.0
18/06:30am 19.5 17.9 15.0 75 2.7 NNE 17 24 9 13 1019.6 - 0.0
18/06:00am 19.3 18.0 14.8 75 2.6 NNE 15 24 8 13 1019.4 1018.7 0.0
18/05:30am 19.5 18.5 14.7 74 2.8 NNE 13 19 7 10 1019.3 - 0.0
18/05:00am 19.6 18.2 14.6 73 2.9 NNE 15 20 8 11 1019.0 - 0.0
18/04:30am 20.2 18.9 14.8 71 3.2 NNE 15 22 8 12 1019.0 - 0.0
18/04:00am 20.4 18.6 14.5 69 3.5 NNE 17 24 9 13 1018.5 - 0.0
18/03:30am 20.9 18.7 14.5 67 3.8 NNE 19 24 10 13 1018.4 - 0.0
18/03:00am 21.3 19.0 14.7 66 3.9 NNE 20 30 11 16 1018.4 1017.7 0.0
18/02:30am 21.5 19.3 14.4 64 4.2 NNE 19 28 10 15 1018.6 - 0.0
18/02:00am 22.0 19.7 14.1 61 4.6 N 19 28 10 15 1018.7 - 0.0
18/01:30am 22.3 20.0 14.2 60 4.8 NNE 19 26 10 14 1018.7 - 0.0
18/01:00am 22.3 20.3 13.9 59 4.9 NNE 17 24 9 13 1018.9 - 0.0
18/12:30am 22.7 20.3 13.7 56 5.3 NNE 19 28 10 15 1018.9 - 0.0
18/12:00am 23.0 20.3 13.5 55 5.5 NNE 20 28 11 15 1019.1 1018.4 0.0
 
Date/Time
EST
Temp
°C
App
Temp
°C
Dew
Point
Rel
Hum
%
Delta-T
°C
Wind Press
QNH
hPa
Press
MSL
hPa
Rain
since 9 am
mm
Dir
 
Spd
km/h
Gust
km/h
Spd
kts
Gust
kts
17/11:30pm 23.1 20.5 13.3 54 5.7 NNE 19 24 10 13 1019.4 - 0.0
17/11:00pm 23.4 21.5 13.0 52 6.0 NNE 15 22 8 12 1020.0 - 0.0
17/10:30pm 23.7 21.3 12.7 50 6.4 N 17 24 9 13 1020.1 - 0.0
17/10:00pm 23.7 20.5 12.0 48 6.7 NNE 20 28 11 15 1019.7 - 0.0
17/09:30pm 21.6 20.1 10.7 50 6.0 NE 9 13 5 7 1019.4 - 0.0
17/09:00pm 22.0 20.7 9.9 46 6.6 NE 7 9 4 5 1019.0 1018.3 0.0
17/08:30pm 22.9 21.2 9.7 43 7.2 ENE 9 11 5 6 1018.7 - 0.0
17/08:00pm 23.0 21.3 9.8 43 7.2 ENE 9 11 5 6 1018.4 - 0.0
17/07:30pm 22.8 21.0 9.6 43 7.2 E 9 9 5 5 1018.2 - 0.0
17/07:00pm 24.3 22.4 9.1 38 8.3 E 9 9 5 5 1017.9 - 0.0
17/06:30pm 25.1 23.6 9.0 36 8.8 E 7 11 4 6 1017.9 - 0.0
17/06:00pm 26.0 24.0 8.5 33 9.5 E 9 13 5 7 1017.8 1017.1 0.0
17/05:30pm 27.3 24.9 8.7 31 10.2 NE 11 19 6 10 1017.7 - 0.0
17/05:00pm 28.3 25.1 8.6 29 10.9 NE 15 20 8 11 1017.5 - 0.0
17/04:30pm 28.7 25.0 7.9 27 11.4 NE 17 26 9 14 1017.3 - 0.0
17/04:00pm 28.7 24.6 7.9 27 11.4 NE 19 30 10 16 1017.3 - 0.0
17/03:30pm 29.1 25.2 9.3 29 11.1 ENE 20 33 11 18 1017.2 - 0.0
17/03:00pm 29.3 25.3 8.4 27 11.6 ENE 19 32 10 17 1017.4 1016.7 0.0
17/02:30pm 29.1 25.5 9.8 30 10.9 NNE 19 28 10 15 1017.8 - 0.0
17/02:00pm 28.5 25.4 10.2 32 10.4 ENE 17 28 9 15 1018.1 - 0.0
17/01:30pm 28.2 25.7 10.9 34 9.9 NE 15 28 8 15 1018.7 - 0.0
17/01:00pm 27.8 24.6 10.1 33 10.0 NE 17 30 9 16 1019.5 - 0.0
17/12:30pm 27.6 24.8 11.2 36 9.4 NNE 17 24 9 13 1020.3 - 0.0
17/12:00pm 27.0 24.6 12.6 41 8.4 NNE 17 26 9 14 1020.9 1020.2 0.0
17/11:30am 26.8 25.4 13.5 44 7.9 N 13 20 7 11 1021.8 - 0.0
17/11:00am 25.6 23.5 13.5 47 7.2 NNE 17 24 9 13 1022.3 - 0.0
17/10:30am 25.4 23.3 13.6 48 7.0 NNE 17 26 9 14 1022.8 - 0.0
17/10:00am 24.9 22.5 14.4 52 6.3 NNE 20 28 11 15 1023.1 - 0.0
17/09:30am 24.2 21.5 14.6 55 5.7 N 22 30 12 16 1023.3 - 0.0
17/09:00am 23.5 20.8 14.5 57 5.3 N 22 33 12 18 1023.5 1022.8 0.0
17/08:30am 22.6 19.9 14.7 61 4.7 N 22 33 12 18 1023.5 - 0.0
17/08:00am 21.2 19.1 15.1 68 3.6 NNE 20 30 11 16 1023.4 - 0.0
17/07:30am 19.7 18.3 14.5 72 3.0 N 15 20 8 11 1023.3 - 0.0
17/07:00am 17.7 16.7 13.4 76 2.4 N 11 15 6 8 1023.2 - 0.0
17/06:30am 16.5 15.9 12.3 76 2.3 N 7 9 4 5 1022.8 - 0.0
17/06:00am 16.8 15.4 12.3 75 2.5 NNE 11 13 6 7 1022.2 1021.5 0.0
17/05:30am 16.5 15.0 11.9 74 2.5 NNE 11 15 6 8 1021.9 - 0.0
17/05:00am 16.7 15.6 11.8 73 2.7 NNE 9 11 5 6 1021.5 - 0.0
17/04:30am 17.6 16.5 12.1 70 3.1 NE 9 13 5 7 1021.2 - 0.0
17/04:00am 17.5 16.2 12.6 73 2.7 NE 11 13 6 7 1020.9 - 0.0
17/03:30am 17.1 16.3 12.8 76 2.4 NE 9 13 5 7 1020.7 - 0.0
17/03:00am 17.0 16.3 13.1 78 2.2 NE 9 11 5 6 1020.9 1020.2 0.0
17/02:30am 16.6 16.2 12.9 79 2.1 NE 7 9 4 5 1021.4 - 0.0
17/02:00am 16.4 16.1 12.8 79 2.0 ENE 6 7 3 4 1021.8 - 0.0
17/01:30am 16.6 17.1 12.9 79 2.1 ENE 2 7 1 4 1021.9 - 0.0
17/01:00am 17.2 18.2 13.1 77 2.3 CALM 0 0 0 0 1022.1 - 0.0
17/12:30am 17.3 18.4 13.4 78 2.2 CALM 0 0 0 0 1022.1 - 0.0
17/12:00am 17.6 18.6 13.3 76 2.4 CALM 0 0 0 0 1022.2 1021.5 0.0
 
Date/Time
EST
Temp
°C
App
Temp
°C
Dew
Point
Rel
Hum
%
Delta-T
°C
Wind Press
QNH
hPa
Press
MSL
hPa
Rain
since 9 am
mm
Dir
 
Spd
km/h
Gust
km/h
Spd
kts
Gust
kts
16/11:30pm 17.3 18.4 13.4 78 2.2 CALM 0 0 0 0 1022.4 - 0.0
16/11:00pm 18.0 18.8 12.7 71 3.0 CALM 0 0 0 0 1022.4 - 0.0
16/10:30pm 18.8 19.7 13.0 69 3.3 CALM 0 0 0 0 1022.6 - 0.0
16/10:00pm 19.2 20.3 13.4 69 3.3 CALM 0 0 0 0 1022.6 - 0.0
16/09:30pm 19.2 20.1 12.9 67 3.6 CALM 0 0 0 0 1022.5 - 0.0
16/09:00pm 19.8 20.7 12.8 64 4.0 CALM 0 0 0 0 1022.4 1021.7 0.0
16/08:30pm 21.7 21.3 13.1 58 5.0 NNE 7 9 4 5 1022.3 - 0.0
16/08:00pm 21.9 21.8 13.3 58 5.0 ENE 6 7 3 4 1022.2 - 0.0
16/07:30pm 22.6 21.8 12.8 54 5.7 E 9 9 5 5 1022.0 - 0.0
16/07:00pm 23.5 23.1 12.5 50 6.3 ESE 6 7 3 4 1022.1 - 0.0
16/06:30pm 25.1 24.4 12.0 44 7.5 ESE 7 11 4 6 1021.7 - 0.0
16/06:00pm 26.2 25.0 11.5 40 8.4 ESE 9 11 5 6 1021.3 1020.6 0.0
16/05:30pm 27.6 25.9 11.2 36 9.4 ESE 11 15 6 8 1021.0 - 0.0
16/05:00pm 28.8 26.5 10.5 32 10.5 ESE 13 17 7 9 1020.8 - 0.0
16/04:30pm 29.4 27.3 11.0 32 10.6 ESE 13 19 7 10 1020.7 - 0.0
16/04:00pm 29.8 27.9 10.4 30 11.1 ENE 11 19 6 10 1020.7 - 0.0
16/03:30pm 29.9 27.6 10.5 30 11.1 ENE 13 19 7 10 1020.9 - 0.0
16/03:00pm 29.5 27.5 10.1 30 11.0 NNE 11 19 6 10 1021.2 1020.5 0.0
16/02:30pm 29.8 27.6 10.9 31 10.9 ENE 13 20 7 11 1021.4 - 0.0
16/02:00pm 29.5 27.6 10.6 31 10.9 NNE 11 19 6 10 1021.9 - 0.0
16/01:30pm 29.4 27.5 11.9 34 10.3 N 13 19 7 10 1022.1 - 0.0
16/01:00pm 28.8 27.4 12.2 35 9.8 NNE 11 19 6 10 1022.6 - 0.0
16/12:30pm 27.8 26.0 12.2 38 9.1 N 13 22 7 12 1023.0 - 0.0
16/11:30am 27.2 25.5 13.5 42 8.2 N 15 22 8 12 1024.3 - 0.0

Other Formats:

Comma delimited format used in spreadsheet applications
http://www.bom.gov.au/fwo/IDQ60801/IDQ60801.94517.axf

JavaScript Object Notation format (JSON) in row-major order
http://www.bom.gov.au/fwo/IDQ60801/IDQ60801.94517.json